Bethel, PA (19507)

2:11 AM EDT on August 21, 2014 (GMT -0400)
APRSWXNET Friedensburg PA US | Change Station
CLOSE
Current Station
Personal Weather Station
Location: Friedensburg, PA
Elevation: 721 ft
Nearby Weather Stations

Elev 721 ft 40.60 °N, 76.24 °W | Updated 41 minutes ago

Partly Cloudy
Partly Cloudy
65 °F
Feels Like 65 °F
N
0
Wind Variable Wind from ENE
Gusts 0.0 mph

Today
High -- | Low -- °F
--% Chance of Precip.
Yesterday
High -- | Low -- °F
Precip. -- in
6:21 AM 7:54 PM
Waning Crescent, 16% visible
Pressure 30.02 in
Visibility 1.0 miles
Clouds Few 9500 ft
Dew Point 64 °F
Humidity 97%
Rainfall 0.12 in
Snow Depth Not available.
UV 0 out of 12
Pollen 9.40 out of 12
Ozone Good
PM2.5 Moderate
Flu Activity Not available.
SPECI KMUI 210606Z AUTO 09002KT 1SM BR FEW095 19/19 A3002 RMK AO2 VIS 1V1 1/2 RVRNO $

More Conditions Fewer Conditions

Pressure 30.02 in
Visibility 1.0 miles
Clouds Few 9500 ft
Dew Point 64 °F
Humidity 97%
Rainfall 0.12 in
Snow Depth Not available.
UV 0 out of 12
Pollen 9.40 out of 12
Ozone Good
PM2.5 Moderate
Flu Activity Not available.
SPECI KMUI 210606Z AUTO 09002KT 1SM BR FEW095 19/19 A3002 RMK AO2 VIS 1V1 1/2 RVRNO $

More Conditions Fewer Conditions

10-Day Weather Forecast

Almanac

Astronomy

Aug. 21, 2014 Rise Set
Actual Time 6:21 AM EDT 7:54 PM EDT
Civil Twilight 5:52 AM EDT 8:22 PM EDT
Nautical Twilight 5:18 AM EDT 8:57 PM EDT
Astronomical Twilight 4:41 AM EDT 9:34 PM EDT
Moon 2:49 AM EDT 5:21 PM EDT
Length of Visible Light 14h 29m
Length of Day
13h 32m
Tomorrow will be 2m 27s shorter.
Waning Crescent, 16% of the Moon is Illuminated
Today
Waning Crescent
Aug 25
New
Sep 2
First Quarter
Sep 8
Full
Sep 15
Last Quarter

Today's Extremes

State Highs State Lows

Community

WunderPhotos

Upload Photos

1,745,858 photos uploaded!

Nearby

Air Quality

  Air Quality AQ Index Pollutant
Yesterday Moderate
OZONE
Yesterday Moderate
PM2.5
Current Moderate
PM2.5
Current Good
OZONE
Thursday Moderate
PM2.5
Thursday Good
OZONE
Friday Moderate
PM2.5
Friday Good
OZONE

Snow Depth

Station Depth Elevation
No new snow has been reported.

Earthquake Activity

City Distance Mag. Time & Date
No recent earthquake activity has been reported nearby.
Minimum magnitude displayed is 2.5.

Coastal Water Temperatures

Place Temperature
No Stations Reporting

Nearby Weather Stations